sensor_id;sensor_type;location;lat;lon;timestamp;P1;durP1;ratioP1;P2;durP2;ratioP2
63203;SDS011;49297;43.210;27.914;2023-11-21T00:01:36;27.88;;;21.77;;
63203;SDS011;49297;43.210;27.914;2023-11-21T00:04:03;18.35;;;16.23;;
63203;SDS011;49297;43.210;27.914;2023-11-21T00:06:29;20.23;;;16.63;;
63203;SDS011;49297;43.210;27.914;2023-11-21T00:08:55;19.42;;;13.90;;
63203;SDS011;49297;43.210;27.914;2023-11-21T00:11:21;18.20;;;16.23;;
63203;SDS011;49297;43.210;27.914;2023-11-21T00:13:47;20.90;;;18.77;;
63203;SDS011;49297;43.210;27.914;2023-11-21T00:16:13;25.73;;;23.33;;
63203;SDS011;49297;43.210;27.914;2023-11-21T00:18:38;30.38;;;24.63;;
63203;SDS011;49297;43.210;27.914;2023-11-21T00:21:04;31.40;;;22.35;;
63203;SDS011;49297;43.210;27.914;2023-11-21T00:23:30;19.05;;;17.25;;
63203;SDS011;49297;43.210;27.914;2023-11-21T00:25:56;21.60;;;19.58;;
63203;SDS011;49297;43.210;27.914;2023-11-21T00:28:22;18.38;;;16.58;;
63203;SDS011;49297;43.210;27.914;2023-11-21T00:30:48;35.25;;;15.68;;
63203;SDS011;49297;43.210;27.914;2023-11-21T00:33:15;18.30;;;14.95;;
63203;SDS011;49297;43.210;27.914;2023-11-21T00:35:40;18.83;;;15.98;;
63203;SDS011;49297;43.210;27.914;2023-11-21T00:38:06;18.65;;;15.82;;
63203;SDS011;49297;43.210;27.914;2023-11-21T00:40:34;22.42;;;16.10;;
63203;SDS011;49297;43.210;27.914;2023-11-21T00:42:59;21.00;;;15.23;;
63203;SDS011;49297;43.210;27.914;2023-11-21T00:45:26;16.35;;;14.50;;
63203;SDS011;49297;43.210;27.914;2023-11-21T00:47:52;17.80;;;15.18;;
63203;SDS011;49297;43.210;27.914;2023-11-21T00:50:17;21.40;;;18.65;;
63203;SDS011;49297;43.210;27.914;2023-11-21T00:52:44;37.60;;;18.00;;
63203;SDS011;49297;43.210;27.914;2023-11-21T00:55:10;22.08;;;17.25;;
63203;SDS011;49297;43.210;27.914;2023-11-21T00:57:37;19.40;;;17.42;;
63203;SDS011;49297;43.210;27.914;2023-11-21T01:00:04;19.00;;;16.85;;
63203;SDS011;49297;43.210;27.914;2023-11-21T01:02:38;18.98;;;17.08;;
63203;SDS011;49297;43.210;27.914;2023-11-21T01:05:04;22.65;;;16.30;;
63203;SDS011;49297;43.210;27.914;2023-11-21T01:07:34;28.60;;;18.15;;
63203;SDS011;49297;43.210;27.914;2023-11-21T01:10:02;18.30;;;14.80;;
63203;SDS011;49297;43.210;27.914;2023-11-21T01:12:31;19.08;;;14.25;;
63203;SDS011;49297;43.210;27.914;2023-11-21T01:14:56;23.05;;;11.55;;
63203;SDS011;49297;43.210;27.914;2023-11-21T01:17:26;13.98;;;12.60;;
63203;SDS011;49297;43.210;27.914;2023-11-21T01:19:52;21.70;;;14.95;;
63203;SDS011;49297;43.210;27.914;2023-11-21T01:22:18;22.48;;;12.88;;
63203;SDS011;49297;43.210;27.914;2023-11-21T01:24:47;14.95;;;11.77;;
63203;SDS011;49297;43.210;27.914;2023-11-21T01:27:13;12.48;;;11.07;;
63203;SDS011;49297;43.210;27.914;2023-11-21T01:29:39;13.05;;;11.65;;
63203;SDS011;49297;43.210;27.914;2023-11-21T01:32:05;13.57;;;11.88;;
63203;SDS011;49297;43.210;27.914;2023-11-21T01:34:33;13.95;;;11.27;;
63203;SDS011;49297;43.210;27.914;2023-11-21T01:36:59;17.15;;;11.75;;
63203;SDS011;49297;43.210;27.914;2023-11-21T01:39:26;14.38;;;12.13;;
63203;SDS011;49297;43.210;27.914;2023-11-21T01:41:53;27.00;;;12.10;;
63203;SDS011;49297;43.210;27.914;2023-11-21T01:44:19;13.55;;;12.15;;
63203;SDS011;49297;43.210;27.914;2023-11-21T01:46:45;16.63;;;13.20;;
63203;SDS011;49297;43.210;27.914;2023-11-21T01:49:13;11.43;;;10.32;;
63203;SDS011;49297;43.210;27.914;2023-11-21T01:51:41;11.85;;;10.68;;
63203;SDS011;49297;43.210;27.914;2023-11-21T01:54:09;15.27;;;11.85;;
63203;SDS011;49297;43.210;27.914;2023-11-21T01:56:37;15.30;;;12.05;;
63203;SDS011;49297;43.210;27.914;2023-11-21T01:59:03;13.88;;;10.13;;
63203;SDS011;49297;43.210;27.914;2023-11-21T02:01:29;11.00;;;9.90;;
63203;SDS011;49297;43.210;27.914;2023-11-21T02:03:55;12.52;;;10.93;;
63203;SDS011;49297;43.210;27.914;2023-11-21T02:06:20;10.75;;;9.40;;
63203;SDS011;49297;43.210;27.914;2023-11-21T02:08:47;12.18;;;11.00;;
63203;SDS011;49297;43.210;27.914;2023-11-21T02:11:13;13.13;;;11.82;;
63203;SDS011;49297;43.210;27.914;2023-11-21T02:13:40;12.43;;;10.57;;
63203;SDS011;49297;43.210;27.914;2023-11-21T02:16:09;15.20;;;12.43;;
63203;SDS011;49297;43.210;27.914;2023-11-21T02:18:38;14.20;;;12.73;;
63203;SDS011;49297;43.210;27.914;2023-11-21T02:21:06;13.80;;;12.35;;
63203;SDS011;49297;43.210;27.914;2023-11-21T02:23:31;11.18;;;9.73;;
63203;SDS011;49297;43.210;27.914;2023-11-21T02:25:58;13.57;;;12.20;;
63203;SDS011;49297;43.210;27.914;2023-11-21T02:28:24;10.90;;;9.48;;
63203;SDS011;49297;43.210;27.914;2023-11-21T02:30:54;15.82;;;12.32;;
63203;SDS011;49297;43.210;27.914;2023-11-21T02:33:24;9.63;;;8.63;;
63203;SDS011;49297;43.210;27.914;2023-11-21T02:35:50;11.73;;;10.55;;
63203;SDS011;49297;43.210;27.914;2023-11-21T02:38:20;14.10;;;12.27;;
63203;SDS011;49297;43.210;27.914;2023-11-21T02:43:27;11.02;;;9.75;;
63203;SDS011;49297;43.210;27.914;2023-11-21T02:45:53;11.10;;;9.93;;
63203;SDS011;49297;43.210;27.914;2023-11-21T02:48:18;11.57;;;8.45;;
63203;SDS011;49297;43.210;27.914;2023-11-21T02:50:44;9.68;;;8.70;;
63203;SDS011;49297;43.210;27.914;2023-11-21T02:53:10;10.05;;;8.93;;
63203;SDS011;49297;43.210;27.914;2023-11-21T02:55:36;10.13;;;9.13;;
63203;SDS011;49297;43.210;27.914;2023-11-21T02:58:02;10.30;;;8.73;;
63203;SDS011;49297;43.210;27.914;2023-11-21T03:00:31;8.80;;;7.82;;
63203;SDS011;49297;43.210;27.914;2023-11-21T03:02:57;9.02;;;6.80;;
63203;SDS011;49297;43.210;27.914;2023-11-21T03:05:23;7.28;;;6.55;;
63203;SDS011;49297;43.210;27.914;2023-11-21T03:07:48;8.77;;;7.13;;
63203;SDS011;49297;43.210;27.914;2023-11-21T03:10:14;7.75;;;5.70;;
63203;SDS011;49297;43.210;27.914;2023-11-21T03:12:40;7.25;;;6.55;;
63203;SDS011;49297;43.210;27.914;2023-11-21T03:15:06;7.43;;;6.47;;
63203;SDS011;49297;43.210;27.914;2023-11-21T03:17:32;12.38;;;9.60;;
63203;SDS011;49297;43.210;27.914;2023-11-21T03:20:02;8.00;;;7.18;;
63203;SDS011;49297;43.210;27.914;2023-11-21T03:22:29;10.25;;;7.93;;
63203;SDS011;49297;43.210;27.914;2023-11-21T03:24:55;7.07;;;6.38;;
63203;SDS011;49297;43.210;27.914;2023-11-21T03:27:21;7.78;;;6.47;;
63203;SDS011;49297;43.210;27.914;2023-11-21T03:29:47;10.00;;;5.50;;
63203;SDS011;49297;43.210;27.914;2023-11-21T03:32:14;7.45;;;5.55;;
63203;SDS011;49297;43.210;27.914;2023-11-21T03:34:53;7.63;;;6.28;;
63203;SDS011;49297;43.210;27.914;2023-11-21T03:37:21;6.32;;;4.60;;
63203;SDS011;49297;43.210;27.914;2023-11-21T03:39:46;6.10;;;5.40;;
63203;SDS011;49297;43.210;27.914;2023-11-21T03:42:12;6.20;;;5.25;;
63203;SDS011;49297;43.210;27.914;2023-11-21T03:44:39;7.78;;;5.30;;
63203;SDS011;49297;43.210;27.914;2023-11-21T03:47:05;7.50;;;6.20;;
63203;SDS011;49297;43.210;27.914;2023-11-21T03:49:31;8.68;;;5.72;;
63203;SDS011;49297;43.210;27.914;2023-11-21T03:51:57;17.73;;;7.35;;
63203;SDS011;49297;43.210;27.914;2023-11-21T03:54:22;8.65;;;6.80;;
63203;SDS011;49297;43.210;27.914;2023-11-21T03:56:51;9.23;;;6.65;;
63203;SDS011;49297;43.210;27.914;2023-11-21T03:59:17;10.23;;;9.05;;
63203;SDS011;49297;43.210;27.914;2023-11-21T04:01:43;13.43;;;11.75;;
63203;SDS011;49297;43.210;27.914;2023-11-21T04:04:08;15.90;;;10.40;;
63203;SDS011;49297;43.210;27.914;2023-11-21T04:06:34;13.02;;;11.57;;
63203;SDS011;49297;43.210;27.914;2023-11-21T04:09:01;18.75;;;12.75;;
63203;SDS011;49297;43.210;27.914;2023-11-21T04:11:29;15.68;;;14.18;;
63203;SDS011;49297;43.210;27.914;2023-11-21T04:13:55;12.80;;;11.65;;
63203;SDS011;49297;43.210;27.914;2023-11-21T04:16:21;14.60;;;13.10;;
63203;SDS011;49297;43.210;27.914;2023-11-21T04:18:47;14.80;;;13.38;;
63203;SDS011;49297;43.210;27.914;2023-11-21T04:21:14;17.20;;;13.45;;
63203;SDS011;49297;43.210;27.914;2023-11-21T04:23:39;15.80;;;13.57;;
63203;SDS011;49297;43.210;27.914;2023-11-21T04:26:05;21.90;;;16.23;;
63203;SDS011;49297;43.210;27.914;2023-11-21T04:28:31;22.10;;;13.55;;
63203;SDS011;49297;43.210;27.914;2023-11-21T04:30:57;18.35;;;16.35;;
63203;SDS011;49297;43.210;27.914;2023-11-21T04:33:23;15.85;;;14.25;;
63203;SDS011;49297;43.210;27.914;2023-11-21T04:35:49;15.90;;;14.20;;
63203;SDS011;49297;43.210;27.914;2023-11-21T04:38:15;17.60;;;15.50;;
63203;SDS011;49297;43.210;27.914;2023-11-21T04:40:41;17.10;;;13.45;;
63203;SDS011;49297;43.210;27.914;2023-11-21T04:43:08;17.77;;;14.75;;
63203;SDS011;49297;43.210;27.914;2023-11-21T04:45:33;17.70;;;13.02;;
63203;SDS011;49297;43.210;27.914;2023-11-21T04:47:59;17.60;;;10.65;;
63203;SDS011;49297;43.210;27.914;2023-11-21T04:50:25;13.18;;;11.77;;
63203;SDS011;49297;43.210;27.914;2023-11-21T04:52:54;15.70;;;14.32;;
63203;SDS011;49297;43.210;27.914;2023-11-21T04:55:19;15.25;;;13.85;;
63203;SDS011;49297;43.210;27.914;2023-11-21T04:57:45;24.80;;;15.50;;
63203;SDS011;49297;43.210;27.914;2023-11-21T05:00:12;18.02;;;13.52;;
63203;SDS011;49297;43.210;27.914;2023-11-21T05:02:39;15.07;;;13.20;;
63203;SDS011;49297;43.210;27.914;2023-11-21T05:05:06;15.73;;;12.57;;
63203;SDS011;49297;43.210;27.914;2023-11-21T05:07:35;13.05;;;11.73;;
63203;SDS011;49297;43.210;27.914;2023-11-21T05:10:01;15.00;;;12.30;;
63203;SDS011;49297;43.210;27.914;2023-11-21T05:12:30;13.65;;;12.40;;
63203;SDS011;49297;43.210;27.914;2023-11-21T05:15:06;15.15;;;10.52;;
63203;SDS011;49297;43.210;27.914;2023-11-21T05:17:35;16.08;;;11.52;;
63203;SDS011;49297;43.210;27.914;2023-11-21T05:20:07;13.52;;;12.20;;
63203;SDS011;49297;43.210;27.914;2023-11-21T05:22:36;12.55;;;11.25;;
63203;SDS011;49297;43.210;27.914;2023-11-21T05:25:02;16.10;;;9.68;;
63203;SDS011;49297;43.210;27.914;2023-11-21T05:27:29;10.38;;;9.35;;
63203;SDS011;49297;43.210;27.914;2023-11-21T05:29:56;10.82;;;9.73;;
63203;SDS011;49297;43.210;27.914;2023-11-21T05:32:23;13.30;;;11.80;;
63203;SDS011;49297;43.210;27.914;2023-11-21T05:34:49;17.27;;;12.40;;
63203;SDS011;49297;43.210;27.914;2023-11-21T05:37:15;27.38;;;16.73;;
63203;SDS011;49297;43.210;27.914;2023-11-21T05:39:42;25.35;;;18.75;;
63203;SDS011;49297;43.210;27.914;2023-11-21T05:42:09;27.75;;;21.83;;
63203;SDS011;49297;43.210;27.914;2023-11-21T05:44:36;32.10;;;29.00;;
63203;SDS011;49297;43.210;27.914;2023-11-21T05:47:03;48.75;;;43.78;;
63203;SDS011;49297;43.210;27.914;2023-11-21T05:49:30;80.35;;;72.35;;
63203;SDS011;49297;43.210;27.914;2023-11-21T05:51:58;57.10;;;51.75;;
63203;SDS011;49297;43.210;27.914;2023-11-21T05:54:24;35.95;;;32.05;;
63203;SDS011;49297;43.210;27.914;2023-11-21T05:56:51;35.00;;;24.75;;
63203;SDS011;49297;43.210;27.914;2023-11-21T05:59:17;25.05;;;22.58;;
63203;SDS011;49297;43.210;27.914;2023-11-21T06:01:43;25.23;;;21.25;;
63203;SDS011;49297;43.210;27.914;2023-11-21T06:04:09;25.23;;;22.30;;
63203;SDS011;49297;43.210;27.914;2023-11-21T06:06:36;23.60;;;19.05;;
63203;SDS011;49297;43.210;27.914;2023-11-21T06:09:02;18.88;;;14.15;;
63203;SDS011;49297;43.210;27.914;2023-11-21T06:11:28;19.08;;;16.98;;
63203;SDS011;49297;43.210;27.914;2023-11-21T06:13:55;20.98;;;14.60;;
63203;SDS011;49297;43.210;27.914;2023-11-21T06:16:21;21.77;;;16.15;;
63203;SDS011;49297;43.210;27.914;2023-11-21T06:18:47;15.07;;;13.60;;
63203;SDS011;49297;43.210;27.914;2023-11-21T06:21:12;17.25;;;15.55;;
63203;SDS011;49297;43.210;27.914;2023-11-21T06:23:38;16.67;;;14.15;;
63203;SDS011;49297;43.210;27.914;2023-11-21T06:26:05;17.90;;;16.10;;
63203;SDS011;49297;43.210;27.914;2023-11-21T06:28:31;18.05;;;13.18;;
63203;SDS011;49297;43.210;27.914;2023-11-21T06:30:57;19.23;;;16.52;;
63203;SDS011;49297;43.210;27.914;2023-11-21T06:33:24;23.92;;;16.45;;
63203;SDS011;49297;43.210;27.914;2023-11-21T06:35:52;17.77;;;16.02;;
63203;SDS011;49297;43.210;27.914;2023-11-21T06:38:18;30.38;;;16.92;;
63203;SDS011;49297;43.210;27.914;2023-11-21T06:40:45;27.85;;;17.65;;
63203;SDS011;49297;43.210;27.914;2023-11-21T06:43:11;33.78;;;16.95;;
63203;SDS011;49297;43.210;27.914;2023-11-21T06:45:37;19.83;;;17.67;;
63203;SDS011;49297;43.210;27.914;2023-11-21T06:48:03;21.30;;;19.20;;
63203;SDS011;49297;43.210;27.914;2023-11-21T06:50:29;20.98;;;18.38;;
63203;SDS011;49297;43.210;27.914;2023-11-21T06:52:55;21.10;;;19.00;;
63203;SDS011;49297;43.210;27.914;2023-11-21T06:55:20;29.48;;;18.90;;
63203;SDS011;49297;43.210;27.914;2023-11-21T06:57:46;23.42;;;18.13;;
63203;SDS011;49297;43.210;27.914;2023-11-21T07:00:12;21.08;;;18.52;;
63203;SDS011;49297;43.210;27.914;2023-11-21T07:02:40;28.83;;;18.20;;
63203;SDS011;49297;43.210;27.914;2023-11-21T07:05:06;25.73;;;21.20;;
63203;SDS011;49297;43.210;27.914;2023-11-21T07:07:32;28.60;;;20.05;;
63203;SDS011;49297;43.210;27.914;2023-11-21T07:10:01;22.40;;;20.08;;
63203;SDS011;49297;43.210;27.914;2023-11-21T07:12:29;36.70;;;22.45;;
63203;SDS011;49297;43.210;27.914;2023-11-21T07:14:56;26.48;;;22.05;;
63203;SDS011;49297;43.210;27.914;2023-11-21T07:17:23;33.53;;;22.27;;
63203;SDS011;49297;43.210;27.914;2023-11-21T07:19:49;25.33;;;21.80;;
63203;SDS011;49297;43.210;27.914;2023-11-21T07:22:15;36.65;;;23.55;;
63203;SDS011;49297;43.210;27.914;2023-11-21T07:24:48;41.20;;;22.00;;
63203;SDS011;49297;43.210;27.914;2023-11-21T07:27:17;24.17;;;21.50;;
63203;SDS011;49297;43.210;27.914;2023-11-21T07:29:43;38.63;;;21.73;;
63203;SDS011;49297;43.210;27.914;2023-11-21T07:32:10;34.40;;;21.83;;
63203;SDS011;49297;43.210;27.914;2023-11-21T07:34:37;25.10;;;20.48;;
63203;SDS011;49297;43.210;27.914;2023-11-21T07:37:03;27.02;;;19.35;;
63203;SDS011;49297;43.210;27.914;2023-11-21T07:39:29;25.80;;;20.75;;
63203;SDS011;49297;43.210;27.914;2023-11-21T07:41:55;29.08;;;21.33;;
63203;SDS011;49297;43.210;27.914;2023-11-21T07:44:21;26.58;;;23.10;;
63203;SDS011;49297;43.210;27.914;2023-11-21T07:46:47;24.90;;;20.48;;
63203;SDS011;49297;43.210;27.914;2023-11-21T07:49:15;23.38;;;19.52;;
63203;SDS011;49297;43.210;27.914;2023-11-21T07:51:42;31.20;;;22.77;;
63203;SDS011;49297;43.210;27.914;2023-11-21T07:54:09;35.58;;;23.35;;
63203;SDS011;49297;43.210;27.914;2023-11-21T07:56:35;27.92;;;21.05;;
63203;SDS011;49297;43.210;27.914;2023-11-21T07:59:01;29.35;;;23.35;;
63203;SDS011;49297;43.210;27.914;2023-11-21T08:01:27;37.17;;;19.37;;
63203;SDS011;49297;43.210;27.914;2023-11-21T08:03:53;23.88;;;17.50;;
63203;SDS011;49297;43.210;27.914;2023-11-21T08:06:23;20.50;;;17.33;;
63203;SDS011;49297;43.210;27.914;2023-11-21T08:08:50;21.85;;;15.15;;
63203;SDS011;49297;43.210;27.914;2023-11-21T08:11:16;16.92;;;14.70;;
63203;SDS011;49297;43.210;27.914;2023-11-21T08:13:42;16.92;;;15.07;;
63203;SDS011;49297;43.210;27.914;2023-11-21T08:16:07;15.93;;;13.60;;
63203;SDS011;49297;43.210;27.914;2023-11-21T08:18:33;17.98;;;13.88;;
63203;SDS011;49297;43.210;27.914;2023-11-21T08:20:59;24.55;;;15.73;;
63203;SDS011;49297;43.210;27.914;2023-11-21T08:23:25;24.65;;;16.77;;
63203;SDS011;49297;43.210;27.914;2023-11-21T08:25:52;23.40;;;18.02;;
63203;SDS011;49297;43.210;27.914;2023-11-21T08:28:18;21.45;;;17.40;;
63203;SDS011;49297;43.210;27.914;2023-11-21T08:33:11;26.05;;;18.67;;
63203;SDS011;49297;43.210;27.914;2023-11-21T08:35:37;27.08;;;20.10;;
63203;SDS011;49297;43.210;27.914;2023-11-21T08:38:03;20.45;;;16.23;;
63203;SDS011;49297;43.210;27.914;2023-11-21T08:40:29;18.13;;;13.82;;
63203;SDS011;49297;43.210;27.914;2023-11-21T08:42:56;18.92;;;14.02;;
63203;SDS011;49297;43.210;27.914;2023-11-21T08:45:24;17.27;;;12.93;;
63203;SDS011;49297;43.210;27.914;2023-11-21T08:47:51;24.60;;;13.82;;
63203;SDS011;49297;43.210;27.914;2023-11-21T08:50:17;22.63;;;14.55;;
63203;SDS011;49297;43.210;27.914;2023-11-21T08:52:44;28.67;;;15.40;;
63203;SDS011;49297;43.210;27.914;2023-11-21T08:55:12;21.35;;;15.45;;
63203;SDS011;49297;43.210;27.914;2023-11-21T08:57:39;18.88;;;15.18;;
63203;SDS011;49297;43.210;27.914;2023-11-21T09:00:06;18.13;;;16.25;;
63203;SDS011;49297;43.210;27.914;2023-11-21T09:02:35;18.10;;;13.50;;
63203;SDS011;49297;43.210;27.914;2023-11-21T09:05:01;21.65;;;15.68;;
63203;SDS011;49297;43.210;27.914;2023-11-21T09:07:28;22.77;;;11.30;;
63203;SDS011;49297;43.210;27.914;2023-11-21T09:09:55;13.63;;;10.75;;
63203;SDS011;49297;43.210;27.914;2023-11-21T09:12:20;29.30;;;9.63;;
63203;SDS011;49297;43.210;27.914;2023-11-21T09:14:47;9.45;;;8.43;;
63203;SDS011;49297;43.210;27.914;2023-11-21T09:17:13;12.90;;;9.20;;
63203;SDS011;49297;43.210;27.914;2023-11-21T09:19:40;15.18;;;10.50;;
63203;SDS011;49297;43.210;27.914;2023-11-21T09:22:06;11.57;;;9.30;;
63203;SDS011;49297;43.210;27.914;2023-11-21T09:24:32;10.45;;;5.20;;
63203;SDS011;49297;43.210;27.914;2023-11-21T09:26:59;9.48;;;3.85;;
63203;SDS011;49297;43.210;27.914;2023-11-21T09:29:25;8.05;;;3.80;;
63203;SDS011;49297;43.210;27.914;2023-11-21T09:31:52;8.65;;;5.82;;
63203;SDS011;49297;43.210;27.914;2023-11-21T09:34:19;5.50;;;3.67;;
63203;SDS011;49297;43.210;27.914;2023-11-21T09:36:45;4.82;;;3.78;;
63203;SDS011;49297;43.210;27.914;2023-11-21T09:39:11;6.43;;;3.97;;
63203;SDS011;49297;43.210;27.914;2023-11-21T09:41:49;7.47;;;4.30;;
63203;SDS011;49297;43.210;27.914;2023-11-21T09:44:22;7.82;;;4.38;;
63203;SDS011;49297;43.210;27.914;2023-11-21T09:47:10;11.13;;;5.00;;
63203;SDS011;49297;43.210;27.914;2023-11-21T09:49:42;9.13;;;3.88;;
63203;SDS011;49297;43.210;27.914;2023-11-21T09:52:13;9.63;;;4.30;;
63203;SDS011;49297;43.210;27.914;2023-11-21T09:54:44;7.63;;;4.07;;
63203;SDS011;49297;43.210;27.914;2023-11-21T09:57:10;6.45;;;3.90;;
63203;SDS011;49297;43.210;27.914;2023-11-21T09:59:36;6.00;;;3.97;;
63203;SDS011;49297;43.210;27.914;2023-11-21T10:02:03;9.90;;;4.28;;
63203;SDS011;49297;43.210;27.914;2023-11-21T10:04:29;8.27;;;4.78;;
63203;SDS011;49297;43.210;27.914;2023-11-21T10:06:56;6.75;;;4.80;;
63203;SDS011;49297;43.210;27.914;2023-11-21T10:09:23;10.05;;;4.00;;
63203;SDS011;49297;43.210;27.914;2023-11-21T10:11:52;11.68;;;4.90;;
63203;SDS011;49297;43.210;27.914;2023-11-21T10:14:19;8.02;;;4.57;;
63203;SDS011;49297;43.210;27.914;2023-11-21T10:16:50;7.10;;;4.78;;
63203;SDS011;49297;43.210;27.914;2023-11-21T10:19:16;6.43;;;5.15;;
63203;SDS011;49297;43.210;27.914;2023-11-21T10:21:43;14.82;;;5.78;;
63203;SDS011;49297;43.210;27.914;2023-11-21T10:24:09;7.60;;;5.05;;
63203;SDS011;49297;43.210;27.914;2023-11-21T10:26:35;15.45;;;5.75;;
63203;SDS011;49297;43.210;27.914;2023-11-21T10:29:02;14.63;;;5.95;;
63203;SDS011;49297;43.210;27.914;2023-11-21T10:31:31;12.05;;;6.10;;
63203;SDS011;49297;43.210;27.914;2023-11-21T10:34:13;5.13;;;4.03;;
63203;SDS011;49297;43.210;27.914;2023-11-21T10:36:43;9.35;;;5.18;;
63203;SDS011;49297;43.210;27.914;2023-11-21T10:39:14;16.58;;;8.05;;
63203;SDS011;49297;43.210;27.914;2023-11-21T10:41:45;7.88;;;5.50;;
63203;SDS011;49297;43.210;27.914;2023-11-21T10:44:15;11.82;;;6.43;;
63203;SDS011;49297;43.210;27.914;2023-11-21T10:46:49;15.82;;;6.72;;
63203;SDS011;49297;43.210;27.914;2023-11-21T10:49:25;10.23;;;7.72;;
63203;SDS011;49297;43.210;27.914;2023-11-21T10:51:55;14.35;;;7.65;;
63203;SDS011;49297;43.210;27.914;2023-11-21T10:54:22;9.75;;;6.20;;
63203;SDS011;49297;43.210;27.914;2023-11-21T10:57:00;11.30;;;6.07;;
63203;SDS011;49297;43.210;27.914;2023-11-21T10:59:30;9.38;;;5.88;;
63203;SDS011;49297;43.210;27.914;2023-11-21T11:01:58;6.32;;;4.57;;
63203;SDS011;49297;43.210;27.914;2023-11-21T11:04:27;13.63;;;5.63;;
63203;SDS011;49297;43.210;27.914;2023-11-21T11:07:03;7.78;;;4.22;;
63203;SDS011;49297;43.210;27.914;2023-11-21T11:09:30;7.93;;;5.65;;
63203;SDS011;49297;43.210;27.914;2023-11-21T11:12:00;8.27;;;5.50;;
63203;SDS011;49297;43.210;27.914;2023-11-21T11:14:27;4.63;;;3.35;;
63203;SDS011;49297;43.210;27.914;2023-11-21T11:16:54;6.68;;;4.70;;
63203;SDS011;49297;43.210;27.914;2023-11-21T11:19:24;10.68;;;5.75;;
63203;SDS011;49297;43.210;27.914;2023-11-21T11:25:01;10.57;;;5.90;;
63203;SDS011;49297;43.210;27.914;2023-11-21T11:33:27;10.57;;;5.18;;
63203;SDS011;49297;43.210;27.914;2023-11-21T11:36:03;11.33;;;5.87;;
63203;SDS011;49297;43.210;27.914;2023-11-21T11:38:36;6.18;;;4.53;;
63203;SDS011;49297;43.210;27.914;2023-11-21T11:41:03;7.25;;;5.30;;
63203;SDS011;49297;43.210;27.914;2023-11-21T11:43:30;6.20;;;4.75;;
63203;SDS011;49297;43.210;27.914;2023-11-21T11:45:59;6.78;;;3.72;;
63203;SDS011;49297;43.210;27.914;2023-11-21T11:48:29;8.52;;;6.75;;
63203;SDS011;49297;43.210;27.914;2023-11-21T11:51:10;8.30;;;6.10;;
63203;SDS011;49297;43.210;27.914;2023-11-21T11:53:44;6.22;;;5.40;;
63203;SDS011;49297;43.210;27.914;2023-11-21T11:56:25;6.10;;;4.50;;
63203;SDS011;49297;43.210;27.914;2023-11-21T11:59:04;6.30;;;5.15;;
63203;SDS011;49297;43.210;27.914;2023-11-21T12:01:32;5.43;;;4.20;;
63203;SDS011;49297;43.210;27.914;2023-11-21T12:06:42;6.80;;;5.13;;
63203;SDS011;49297;43.210;27.914;2023-11-21T12:09:17;7.75;;;4.35;;
63203;SDS011;49297;43.210;27.914;2023-11-21T12:11:44;12.52;;;6.65;;
63203;SDS011;49297;43.210;27.914;2023-11-21T12:14:12;7.22;;;4.90;;
63203;SDS011;49297;43.210;27.914;2023-11-21T12:16:39;6.38;;;5.18;;
63203;SDS011;49297;43.210;27.914;2023-11-21T12:19:05;6.30;;;3.80;;
63203;SDS011;49297;43.210;27.914;2023-11-21T12:21:30;6.68;;;5.05;;
63203;SDS011;49297;43.210;27.914;2023-11-21T12:23:57;10.88;;;5.80;;
63203;SDS011;49297;43.210;27.914;2023-11-21T12:26:26;6.55;;;4.78;;
63203;SDS011;49297;43.210;27.914;2023-11-21T12:28:52;6.03;;;4.35;;
63203;SDS011;49297;43.210;27.914;2023-11-21T12:31:22;7.10;;;5.38;;
63203;SDS011;49297;43.210;27.914;2023-11-21T12:33:48;4.80;;;3.65;;
63203;SDS011;49297;43.210;27.914;2023-11-21T12:36:14;9.02;;;4.38;;
63203;SDS011;49297;43.210;27.914;2023-11-21T12:38:40;7.18;;;4.57;;
63203;SDS011;49297;43.210;27.914;2023-11-21T12:41:07;11.02;;;4.97;;
63203;SDS011;49297;43.210;27.914;2023-11-21T12:43:33;8.77;;;4.82;;
63203;SDS011;49297;43.210;27.914;2023-11-21T12:46:07;11.70;;;4.95;;
63203;SDS011;49297;43.210;27.914;2023-11-21T12:48:42;4.53;;;3.53;;
63203;SDS011;49297;43.210;27.914;2023-11-21T12:51:09;5.43;;;3.47;;
63203;SDS011;49297;43.210;27.914;2023-11-21T12:53:43;6.38;;;4.03;;
63203;SDS011;49297;43.210;27.914;2023-11-21T12:56:10;6.60;;;4.57;;
63203;SDS011;49297;43.210;27.914;2023-11-21T12:58:37;7.60;;;4.70;;
63203;SDS011;49297;43.210;27.914;2023-11-21T13:01:06;8.02;;;4.45;;
63203;SDS011;49297;43.210;27.914;2023-11-21T13:03:40;4.88;;;4.00;;
63203;SDS011;49297;43.210;27.914;2023-11-21T13:06:07;5.68;;;3.75;;
63203;SDS011;49297;43.210;27.914;2023-11-21T13:08:34;5.72;;;4.13;;
63203;SDS011;49297;43.210;27.914;2023-11-21T13:11:00;6.70;;;5.32;;
63203;SDS011;49297;43.210;27.914;2023-11-21T13:13:28;4.25;;;3.67;;
63203;SDS011;49297;43.210;27.914;2023-11-21T13:15:55;9.88;;;5.03;;
63203;SDS011;49297;43.210;27.914;2023-11-21T13:18:23;4.88;;;3.63;;
63203;SDS011;49297;43.210;27.914;2023-11-21T13:20:50;9.40;;;4.55;;
63203;SDS011;49297;43.210;27.914;2023-11-21T13:23:17;5.93;;;3.97;;
63203;SDS011;49297;43.210;27.914;2023-11-21T13:25:43;8.50;;;3.88;;
63203;SDS011;49297;43.210;27.914;2023-11-21T13:28:11;4.03;;;3.33;;
63203;SDS011;49297;43.210;27.914;2023-11-21T13:30:38;9.95;;;3.70;;
63203;SDS011;49297;43.210;27.914;2023-11-21T13:33:06;9.52;;;5.63;;
63203;SDS011;49297;43.210;27.914;2023-11-21T13:35:34;5.25;;;3.88;;
63203;SDS011;49297;43.210;27.914;2023-11-21T13:38:09;8.35;;;3.42;;
63203;SDS011;49297;43.210;27.914;2023-11-21T13:40:38;5.65;;;3.38;;
63203;SDS011;49297;43.210;27.914;2023-11-21T13:43:16;8.13;;;3.40;;
63203;SDS011;49297;43.210;27.914;2023-11-21T13:45:46;4.18;;;2.85;;
63203;SDS011;49297;43.210;27.914;2023-11-21T13:48:17;4.78;;;2.63;;
63203;SDS011;49297;43.210;27.914;2023-11-21T13:50:50;4.70;;;2.92;;
63203;SDS011;49297;43.210;27.914;2023-11-21T13:53:35;4.15;;;2.55;;
63203;SDS011;49297;43.210;27.914;2023-11-21T13:56:03;8.38;;;3.65;;
63203;SDS011;49297;43.210;27.914;2023-11-21T13:58:29;4.72;;;2.20;;
63203;SDS011;49297;43.210;27.914;2023-11-21T14:01:17;2.42;;;2.20;;
63203;SDS011;49297;43.210;27.914;2023-11-21T14:03:59;8.75;;;3.65;;
63203;SDS011;49297;43.210;27.914;2023-11-21T14:06:45;4.53;;;2.60;;
63203;SDS011;49297;43.210;27.914;2023-11-21T14:09:19;7.13;;;3.55;;
63203;SDS011;49297;43.210;27.914;2023-11-21T14:11:54;5.38;;;3.67;;
63203;SDS011;49297;43.210;27.914;2023-11-21T14:14:23;3.58;;;3.25;;
63203;SDS011;49297;43.210;27.914;2023-11-21T14:16:52;6.50;;;3.83;;
63203;SDS011;49297;43.210;27.914;2023-11-21T14:19:18;8.52;;;4.32;;
63203;SDS011;49297;43.210;27.914;2023-11-21T14:21:44;4.05;;;3.10;;
63203;SDS011;49297;43.210;27.914;2023-11-21T14:24:12;5.90;;;3.60;;
63203;SDS011;49297;43.210;27.914;2023-11-21T14:26:39;5.20;;;3.95;;
63203;SDS011;49297;43.210;27.914;2023-11-21T14:29:06;8.90;;;4.47;;
63203;SDS011;49297;43.210;27.914;2023-11-21T14:31:33;6.50;;;4.40;;
63203;SDS011;49297;43.210;27.914;2023-11-21T14:34:00;4.55;;;3.25;;
63203;SDS011;49297;43.210;27.914;2023-11-21T14:36:27;3.80;;;3.28;;
63203;SDS011;49297;43.210;27.914;2023-11-21T14:38:54;12.48;;;4.22;;